Time;durP1;ratioP1;P1;durP2;ratioP2;P2;SDS_P1;SDS_P2;PMS_P1;PMS_P2;Temp;Humidity;BMP_temperature;BMP_pressure;BME280_temperature;BME280_humidity;BME280_pressure;Samples;Min_cycle;Max_cycle;Signal;HPM_P1;HPM_P2
2022/06/24 00:01:40;;;;;;;5.35;3.30;;;;;;;18.75;nan;-24339.09;5054479;28;20222;-58
2022/06/24 00:04:06;;;;;;;5.80;2.83;;;;;;;18.54;nan;-24333.25;5053324;28;20183;-60
2022/06/24 00:06:49;;;;;;;6.00;3.15;;;;;;;18.58;nan;-24334.22;5054654;28;20566;-60
2022/06/24 00:09:15;;;;;;;6.18;2.80;;;;;;;18.75;nan;-24338.97;5053286;28;20617;-58
2022/06/24 00:11:42;;;;;;;5.05;3.20;;;;;;;18.90;nan;-24343.28;5053442;28;20551;-59
2022/06/24 00:14:15;;;;;;;4.03;2.83;;;;;;;19.00;nan;-24345.91;5053717;28;20179;-59
2022/06/24 00:17:00;;;;;;;5.10;3.03;;;;;;;19.22;nan;-24351.91;5053161;28;20186;-59
2022/06/24 00:19:28;;;;;;;4.05;2.72;;;;;;;19.11;nan;-24348.84;5053334;28;20232;-59
2022/06/24 00:22:08;;;;;;;3.80;2.95;;;;;;;18.71;nan;-24337.84;5052940;28;20186;-60
2022/06/24 00:24:36;;;;;;;4.38;2.83;;;;;;;18.28;nan;-24326.13;5051784;28;20214;-59
2022/06/24 00:27:02;;;;;;;4.90;2.92;;;;;;;18.83;nan;-24341.19;5051815;28;20182;-60
2022/06/24 00:29:30;;;;;;;4.95;2.90;;;;;;;18.82;nan;-24341.03;5052385;28;20232;-60
2022/06/24 00:32:07;;;;;;;6.90;3.38;;;;;;;18.80;nan;-24340.50;5052081;28;20194;-60
2022/06/24 00:34:34;;;;;;;3.63;2.67;;;;;;;18.16;nan;-24322.66;5052165;28;20202;-60
2022/06/24 00:37:29;;;;;;;4.25;3.08;;;;;;;18.74;nan;-24338.69;5051665;28;20182;-59
2022/06/24 00:40:19;;;;;;;4.97;3.13;;;;;;;18.35;nan;-24327.94;5051729;28;20209;-60
2022/06/24 00:42:46;;;;;;;4.47;2.90;;;;;;;18.60;nan;-24334.91;5051609;28;20257;-60
2022/06/24 00:45:41;;;;;;;5.07;3.53;;;;;;;18.80;nan;-24340.50;5052142;28;20329;-59
2022/06/24 00:48:14;;;;;;;4.25;3.05;;;;;;;18.54;nan;-24333.38;5050069;28;20688;-58
2022/06/24 00:50:44;;;;;;;4.55;3.22;;;;;;;18.71;nan;-24338.00;5051722;28;20217;-58
2022/06/24 00:53:10;;;;;;;4.18;3.03;;;;;;;18.36;nan;-24328.38;5050925;28;20229;-58
2022/06/24 00:55:38;;;;;;;5.50;2.97;;;;;;;18.41;nan;-24329.63;5052182;28;20183;-59
2022/06/24 00:58:04;;;;;;;4.75;3.05;;;;;;;18.14;nan;-24322.25;5050019;28;20201;-59
2022/06/24 01:00:32;;;;;;;4.40;2.85;;;;;;;18.50;nan;-24332.13;5049430;28;20268;-59
2022/06/24 01:03:03;;;;;;;4.22;2.85;;;;;;;18.28;nan;-24326.00;5051194;28;20565;-60
2022/06/24 01:05:30;;;;;;;4.13;2.70;;;;;;;17.45;nan;-24303.13;5049584;28;20641;-60
2022/06/24 01:07:57;;;;;;;3.65;2.80;;;;;;;18.38;nan;-24328.78;5051796;28;20183;-59
2022/06/24 01:10:23;;;;;;;7.28;3.85;;;;;;;18.45;nan;-24330.75;5051613;28;20190;-60
2022/06/24 01:12:49;;;;;;;5.80;3.30;;;;;;;18.22;nan;-24324.47;5051360;28;20202;-59
2022/06/24 01:15:14;;;;;;;6.70;3.47;;;;;;;18.21;nan;-24324.19;5051260;28;20220;-59
2022/06/24 01:17:41;;;;;;;5.90;3.25;;;;;;;17.91;nan;-24315.81;5051875;28;20642;-59
2022/06/24 01:20:11;;;;;;;7.40;3.22;;;;;;;17.99;nan;-24318.06;5051488;28;20182;-59
2022/06/24 01:22:37;;;;;;;5.45;3.60;;;;;;;17.85;nan;-24314.28;5051589;28;20177;-59
2022/06/24 01:25:03;;;;;;;6.72;3.92;;;;;;;17.82;nan;-24313.47;5051101;28;20197;-59
2022/06/24 01:27:29;;;;;;;5.68;3.35;;;;;;;17.83;nan;-24313.75;5050221;28;20526;-60
2022/06/24 01:29:55;;;;;;;4.70;3.55;;;;;;;17.63;nan;-24308.16;5050793;28;20186;-61
2022/06/24 01:32:20;;;;;;;8.13;4.03;;;;;;;17.82;nan;-24313.47;5050028;28;20198;-60
2022/06/24 01:34:46;;;;;;;6.88;4.10;;;;;;;17.33;nan;-24299.91;5051497;28;20186;-60
2022/06/24 01:37:12;;;;;;;8.52;4.28;;;;;;;17.80;nan;-24312.91;5050743;28;20259;-59
2022/06/24 01:39:38;;;;;;;6.85;4.13;;;;;;;17.50;nan;-24304.53;5051927;28;20538;-59
2022/06/24 01:42:04;;;;;;;8.50;5.15;;;;;;;17.70;nan;-24309.97;5051185;28;20231;-59
2022/06/24 01:44:29;;;;;;;9.85;4.60;;;;;;;17.40;nan;-24301.88;5051255;28;20258;-58
2022/06/24 01:46:55;;;;;;;6.80;3.97;;;;;;;17.74;nan;-24311.09;5049347;28;20336;-59
2022/06/24 01:49:21;;;;;;;8.27;4.45;;;;;;;17.56;nan;-24306.19;5049912;28;20179;-59
2022/06/24 01:51:48;;;;;;;9.02;4.40;;;;;;;17.76;nan;-24311.63;5050844;28;20255;-59
2022/06/24 01:54:14;;;;;;;7.43;4.32;;;;;;;17.55;nan;-24305.91;5050757;28;20189;-58
2022/06/24 01:56:40;;;;;;;8.18;4.32;;;;;;;17.42;nan;-24302.44;5051420;28;20183;-59
2022/06/24 01:59:05;;;;;;;12.57;4.65;;;;;;;17.65;nan;-24308.84;5050012;28;20189;-58
2022/06/24 02:01:31;;;;;;;6.38;4.20;;;;;;;17.42;nan;-24302.44;5050128;28;20226;-59
2022/06/24 02:03:56;;;;;;;6.63;4.10;;;;;;;17.32;nan;-24299.63;5050142;28;20560;-58
2022/06/24 02:06:22;;;;;;;9.07;4.35;;;;;;;17.59;nan;-24307.03;5050544;28;20178;-58
2022/06/24 02:08:48;;;;;;;8.77;4.43;;;;;;;17.57;nan;-24306.63;5050477;28;20708;-60
2022/06/24 02:13:59;;;;;;;6.40;3.50;;;;;;;17.51;nan;-24304.94;5047958;28;20213;-58
2022/06/24 02:16:26;;;;;;;6.75;4.30;;;;;;;17.37;nan;-24300.91;5050572;28;20178;-58
2022/06/24 02:18:53;;;;;;;6.40;4.38;;;;;;;17.49;nan;-24304.25;5050689;28;20182;-58
2022/06/24 02:21:20;;;;;;;6.13;3.92;;;;;;;17.17;nan;-24295.44;5042991;28;20182;-59
2022/06/24 02:23:46;;;;;;;7.47;4.10;;;;;;;17.31;nan;-24299.38;5046757;28;20194;-58
2022/06/24 02:26:11;;;;;;;5.78;3.50;;;;;;;17.32;nan;-24299.63;5049769;28;20178;-58
2022/06/24 02:28:37;;;;;;;7.90;3.80;;;;;;;17.51;nan;-24304.94;5050491;28;20579;-58
2022/06/24 02:31:02;;;;;;;6.32;3.53;;;;;;;17.41;nan;-24302.16;5050172;28;20186;-58
2022/06/24 02:33:28;;;;;;;9.60;4.07;;;;;;;17.28;nan;-24298.53;5049927;28;20272;-58
2022/06/24 02:35:54;;;;;;;5.65;3.55;;;;;;;17.53;nan;-24305.34;5050160;28;20261;-58
2022/06/24 02:38:20;;;;;;;6.63;4.10;;;;;;;17.62;nan;-24307.88;5050612;28;20313;-58
2022/06/24 02:40:49;;;;;;;8.35;4.18;;;;;;;17.46;nan;-24303.41;5050184;28;20221;-58
2022/06/24 02:43:22;;;;;;;5.40;3.38;;;;;;;17.58;nan;-24306.75;5050498;28;20185;-58
2022/06/24 02:45:50;;;;;;;5.47;3.92;;;;;;;17.37;nan;-24301.03;5047181;28;20185;-59
2022/06/24 02:48:16;;;;;;;6.75;4.28;;;;;;;17.09;nan;-24293.34;5050933;28;20174;-58
2022/06/24 02:50:47;;;;;;;8.77;4.32;;;;;;;17.32;nan;-24299.63;5051064;28;20193;-61
2022/06/24 02:53:17;;;;;;;7.78;3.83;;;;;;;17.57;nan;-24306.47;5050935;28;20233;-60
2022/06/24 02:55:47;;;;;;;7.10;4.10;;;;;;;17.58;nan;-24306.91;5050221;28;20657;-60
2022/06/24 02:58:14;;;;;;;9.57;4.30;;;;;;;17.81;nan;-24313.03;5050784;28;20662;-58
2022/06/24 03:00:41;;;;;;;7.60;4.13;;;;;;;17.71;nan;-24310.25;5050645;28;20690;-61
2022/06/24 03:03:10;;;;;;;6.15;4.30;;;;;;;18.29;nan;-24326.41;5049805;28;20225;-59
2022/06/24 03:05:36;;;;;;;6.43;3.58;;;;;;;18.43;nan;-24330.19;5050292;28;20182;-59
2022/06/24 03:08:02;;;;;;;8.07;4.55;;;;;;;19.16;nan;-24350.38;5049717;28;20550;-59
2022/06/24 03:10:27;;;;;;;7.68;3.85;;;;;;;19.65;nan;-24363.88;5050450;28;20179;-61
2022/06/24 03:12:53;;;;;;;8.00;4.00;;;;;;;20.24;nan;-24380.13;5043359;28;21433;-60
2022/06/24 03:15:18;;;;;;;7.78;3.92;;;;;;;20.67;nan;-24391.78;5044826;28;20193;-62
2022/06/24 03:17:44;;;;;;;13.60;4.55;;;;;;;21.34;nan;-24410.09;5044318;28;20179;-59
2022/06/24 03:20:10;;;;;;;7.07;4.03;;;;;;;21.70;nan;-24420.06;5044839;28;20182;-59
2022/06/24 03:22:36;;;;;;;8.82;3.78;;;;;;;21.80;nan;-24422.84;5045095;28;20567;-61
2022/06/24 03:25:03;;;;;;;6.07;3.78;;;;;;;21.16;nan;-24405.25;5043956;28;20656;-59
2022/06/24 03:27:29;;;;;;;6.95;3.92;;;;;;;20.83;nan;-24396.09;5044349;28;20695;-60
2022/06/24 03:29:54;;;;;;;6.22;3.97;;;;;;;20.08;nan;-24375.69;5044387;28;20182;-60
2022/06/24 03:32:20;;;;;;;8.80;3.90;;;;;;;20.02;nan;-24374.00;5044126;28;20198;-60
2022/06/24 03:34:46;;;;;;;5.53;3.53;;;;;;;19.72;nan;-24365.81;5044920;28;20266;-60
2022/06/24 03:37:11;;;;;;;7.78;3.88;;;;;;;18.99;nan;-24345.66;5044197;28;20187;-59
2022/06/24 03:39:37;;;;;;;5.55;3.45;;;;;;;19.24;nan;-24352.59;5044781;28;20223;-60
2022/06/24 03:42:03;;;;;;;6.05;3.85;;;;;;;19.15;nan;-24349.94;5042784;28;20183;-59
2022/06/24 03:44:28;;;;;;;6.95;3.45;;;;;;;19.05;nan;-24347.19;5044546;28;20179;-61
2022/06/24 03:46:54;;;;;;;6.63;3.80;;;;;;;18.54;nan;-24333.25;5045076;28;20202;-60
2022/06/24 03:49:19;;;;;;;6.72;3.78;;;;;;;18.53;nan;-24333.13;5042446;28;20210;-58
2022/06/24 03:51:48;;;;;;;9.10;3.53;;;;;;;18.85;nan;-24341.88;5048141;28;20186;-58
2022/06/24 03:54:14;;;;;;;5.07;3.05;;;;;;;18.68;nan;-24337.16;5048037;28;20192;-58
2022/06/24 03:56:40;;;;;;;10.20;3.78;;;;;;;19.00;nan;-24345.78;5044780;28;20182;-60
2022/06/24 03:59:05;;;;;;;5.43;3.53;;;;;;;19.14;nan;-24349.69;5045844;28;20236;-60
2022/06/24 04:01:31;;;;;;;8.75;3.63;;;;;;;18.38;nan;-24328.78;5047268;28;20226;-59
2022/06/24 04:03:56;;;;;;;4.60;3.47;;;;;;;19.25;nan;-24352.75;5046137;28;20559;-59
2022/06/24 04:06:22;;;;;;;5.10;3.38;;;;;;;19.73;nan;-24365.94;5046699;28;20270;-59
2022/06/24 04:08:47;;;;;;;4.57;2.92;;;;;;;19.85;nan;-24369.28;5051941;28;20183;-59
2022/06/24 04:11:15;;;;;;;5.68;3.55;;;;;;;20.09;nan;-24375.97;5051787;28;20177;-58
2022/06/24 04:13:42;;;;;;;6.00;3.60;;;;;;;19.74;nan;-24366.38;5051340;28;20285;-59
2022/06/24 04:16:07;;;;;;;5.43;3.08;;;;;;;19.73;nan;-24365.94;5051664;28;20230;-59
2022/06/24 04:18:33;;;;;;;7.53;3.83;;;;;;;19.89;nan;-24370.25;5051586;28;20262;-60
2022/06/24 04:20:59;;;;;;;5.88;3.83;;;;;;;19.62;nan;-24363.03;5051647;28;20182;-59
2022/06/24 04:23:25;;;;;;;8.63;3.58;;;;;;;19.93;nan;-24371.38;5051277;28;20574;-61
2022/06/24 04:25:51;;;;;;;6.60;3.72;;;;;;;19.92;nan;-24371.09;5051663;28;20197;-58
2022/06/24 04:28:17;;;;;;;8.90;4.47;;;;;;;19.79;nan;-24367.63;5049769;28;20174;-58
2022/06/24 04:30:43;;;;;;;5.50;3.50;;;;;;;20.21;nan;-24379.16;5051620;28;20182;-61
2022/06/24 04:33:08;;;;;;;6.43;3.72;;;;;;;20.46;nan;-24385.97;5050702;28;20202;-60
2022/06/24 04:35:34;;;;;;;6.68;3.95;;;;;;;20.48;nan;-24386.53;5052138;28;20186;-62
2022/06/24 04:38:00;;;;;;;5.57;3.50;;;;;;;20.77;nan;-24394.41;5051432;28;20209;-61
2022/06/24 04:40:25;;;;;;;9.82;4.40;;;;;;;21.40;nan;-24411.75;5051372;28;20262;-62
2022/06/24 04:42:51;;;;;;;10.63;3.97;;;;;;;22.33;nan;-24437.25;5052325;28;20190;-61
2022/06/24 04:45:17;;;;;;;6.35;3.88;;;;;;;23.77;nan;-24476.78;5051007;28;20197;-60
2022/06/24 04:47:43;;;;;;;5.82;3.50;;;;;;;24.63;nan;-24500.06;5052241;28;20222;-62
2022/06/24 04:50:09;;;;;;;6.93;4.00;;;;;;;24.77;nan;-24503.78;5050985;28;20179;-60
2022/06/24 04:52:36;;;;;;;6.03;3.97;;;;;;;26.02;nan;-24537.78;5047157;28;20214;-60
2022/06/24 04:55:02;;;;;;;6.60;4.00;;;;;;;27.05;nan;-24565.94;5050025;28;20186;-60
2022/06/24 04:57:28;;;;;;;7.78;4.30;;;;;;;27.51;nan;-24578.41;5051127;28;20181;-61
2022/06/24 04:59:54;;;;;;;6.57;4.35;;;;;;;27.87;nan;-24588.13;5049542;28;20182;-61
2022/06/24 05:02:19;;;;;;;6.78;4.22;;;;;;;28.53;nan;-24605.94;5049156;28;20643;-61
2022/06/24 05:04:45;;;;;;;8.95;5.05;;;;;;;28.71;nan;-24610.72;5049698;28;20191;-60
2022/06/24 05:07:11;;;;;;;7.68;4.35;;;;;;;28.71;nan;-24610.88;5048680;28;20563;-61
2022/06/24 05:09:36;;;;;;;6.75;4.05;;;;;;;28.53;nan;-24606.06;5050732;28;20167;-63
2022/06/24 05:12:03;;;;;;;12.25;4.85;;;;;;;28.38;nan;-24601.84;5049561;28;20280;-60
2022/06/24 05:14:31;;;;;;;8.18;4.38;;;;;;;28.13;nan;-24595.13;5050770;28;20185;-60
2022/06/24 05:16:58;;;;;;;7.07;4.38;;;;;;;28.74;nan;-24611.69;5049142;28;20194;-60
2022/06/24 05:19:23;;;;;;;4.70;3.28;;;;;;;27.52;nan;-24578.56;5049525;28;20175;-60
2022/06/24 05:21:49;;;;;;;8.52;3.70;;;;;;;27.92;nan;-24589.50;5048796;28;20185;-59
2022/06/24 05:24:14;;;;;;;6.18;3.95;;;;;;;27.70;nan;-24583.47;5049202;28;20686;-60
2022/06/24 05:26:41;;;;;;;4.90;3.05;;;;;;;27.34;nan;-24573.75;5050025;28;20167;-62
2022/06/24 05:29:07;;;;;;;5.60;3.38;;;;;;;27.16;nan;-24568.81;5048954;28;20634;-62
2022/06/24 05:31:33;;;;;;;5.55;3.60;;;;;;;26.59;nan;-24553.31;5049946;28;20190;-61
2022/06/24 05:33:58;;;;;;;5.78;4.07;;;;;;;26.99;nan;-24564.16;5049980;28;20202;-61
2022/06/24 05:36:24;;;;;;;7.18;4.28;;;;;;;26.65;nan;-24554.97;5050080;28;20191;-60
2022/06/24 05:38:50;;;;;;;5.60;3.80;;;;;;;25.55;nan;-24525.13;5049213;28;20174;-60
2022/06/24 05:41:16;;;;;;;5.32;3.88;;;;;;;25.97;nan;-24536.56;5049744;28;20229;-62
2022/06/24 05:43:43;;;;;;;5.60;3.38;;;;;;;25.84;nan;-24532.97;5049649;28;20183;-64
2022/06/24 05:46:09;;;;;;;5.05;3.50;;;;;;;24.88;nan;-24506.97;5050107;28;20178;-61
2022/06/24 05:48:35;;;;;;;7.18;3.20;;;;;;;25.20;nan;-24515.50;5051208;28;20555;-61
2022/06/24 05:51:11;;;;;;;4.90;3.15;;;;;;;24.97;nan;-24509.31;5049734;28;20182;-60
2022/06/24 05:56:21;;;;;;;4.72;3.38;;;;;;;24.40;nan;-24493.88;5049294;28;20236;-60
2022/06/24 05:58:47;;;;;;;3.85;2.90;;;;;;;24.08;nan;-24485.06;5049433;28;20179;-60
2022/06/24 06:01:12;;;;;;;6.60;3.40;;;;;;;24.41;nan;-24494.00;5050487;28;20226;-61
2022/06/24 06:03:38;;;;;;;4.88;3.40;;;;;;;24.35;nan;-24492.50;5049182;28;20175;-60
2022/06/24 06:06:03;;;;;;;3.65;2.90;;;;;;;24.12;nan;-24486.16;5049871;28;20200;-61
2022/06/24 06:08:29;;;;;;;5.45;2.92;;;;;;;24.20;nan;-24488.38;5049661;28;20191;-61
2022/06/24 06:10:54;;;;;;;5.57;2.55;;;;;;;24.23;nan;-24489.06;5049608;28;20190;-61
2022/06/24 06:13:20;;;;;;;5.80;2.90;;;;;;;24.36;nan;-24492.78;5047624;28;21709;-61
2022/06/24 06:15:45;;;;;;;5.47;3.58;;;;;;;23.85;nan;-24478.69;5048994;28;20242;-60
2022/06/24 06:18:11;;;;;;;4.32;2.88;;;;;;;23.75;nan;-24476.09;5048154;28;20187;-59
2022/06/24 06:20:37;;;;;;;4.72;2.95;;;;;;;23.98;nan;-24482.44;5048779;28;20259;-62
2022/06/24 06:23:04;;;;;;;4.60;3.20;;;;;;;24.17;nan;-24487.53;5047659;28;20587;-61
2022/06/24 06:25:29;;;;;;;5.32;3.25;;;;;;;24.54;nan;-24497.75;5049155;28;20198;-62
2022/06/24 06:27:55;;;;;;;3.53;2.88;;;;;;;24.32;nan;-24491.69;5048778;28;20740;-60
2022/06/24 06:30:20;;;;;;;3.60;2.80;;;;;;;24.55;nan;-24497.88;5047675;28;20190;-63
2022/06/24 06:32:46;;;;;;;4.40;2.78;;;;;;;24.64;nan;-24500.50;5049069;28;20203;-62
2022/06/24 06:35:11;;;;;;;5.00;3.20;;;;;;;24.70;nan;-24501.88;5048801;28;20205;-60
2022/06/24 06:37:37;;;;;;;3.78;2.72;;;;;;;24.94;nan;-24508.47;5048980;28;20182;-60
2022/06/24 06:40:02;;;;;;;4.18;2.92;;;;;;;25.16;nan;-24514.53;5048080;28;20183;-61
2022/06/24 06:42:28;;;;;;;3.90;2.63;;;;;;;25.37;nan;-24520.31;5049144;28;20255;-60
2022/06/24 06:44:55;;;;;;;6.70;2.90;;;;;;;25.28;nan;-24517.84;5050038;28;20178;-60
2022/06/24 06:47:20;;;;;;;3.42;2.85;;;;;;;25.01;nan;-24510.56;5049237;28;20201;-60
2022/06/24 06:49:46;;;;;;;3.78;2.53;;;;;;;25.29;nan;-24518.13;5049780;28;20178;-61
2022/06/24 06:52:11;;;;;;;4.05;2.78;;;;;;;25.09;nan;-24512.63;5049174;28;20288;-61
2022/06/24 06:54:37;;;;;;;4.47;3.00;;;;;;;25.39;nan;-24520.88;5049261;28;20178;-62
2022/06/24 06:57:03;;;;;;;5.60;3.03;;;;;;;25.05;nan;-24511.50;5048714;28;20584;-59
2022/06/24 06:59:28;;;;;;;4.38;2.90;;;;;;;25.38;nan;-24520.47;5048951;28;20252;-61
2022/06/24 07:01:54;;;;;;;6.57;3.42;;;;;;;25.52;nan;-24524.31;5049771;28;20603;-61
2022/06/24 07:04:19;;;;;;;6.35;3.13;;;;;;;25.32;nan;-24518.94;5049106;28;20178;-61
2022/06/24 07:06:46;;;;;;;4.55;2.97;;;;;;;25.58;nan;-24525.81;5045252;28;20626;-61
2022/06/24 07:09:11;;;;;;;3.58;2.85;;;;;;;25.51;nan;-24524.16;5048442;28;20226;-62
2022/06/24 07:11:37;;;;;;;4.38;3.10;;;;;;;25.74;nan;-24530.22;5049340;28;20668;-61
2022/06/24 07:14:02;;;;;;;3.65;3.00;;;;;;;25.41;nan;-24521.41;5048064;28;20647;-61
2022/06/24 07:16:28;;;;;;;5.63;3.20;;;;;;;25.51;nan;-24524.03;5049884;28;20650;-60
2022/06/24 07:18:53;;;;;;;3.35;2.67;;;;;;;25.42;nan;-24521.69;5049400;28;20577;-60
2022/06/24 07:21:19;;;;;;;4.43;3.20;;;;;;;25.46;nan;-24522.66;5048062;28;20179;-60
2022/06/24 07:23:44;;;;;;;4.30;2.95;;;;;;;25.81;nan;-24532.28;5048869;28;20186;-60
2022/06/24 07:26:10;;;;;;;4.50;3.03;;;;;;;26.07;nan;-24539.16;5051812;28;20316;-60
2022/06/24 07:28:37;;;;;;;5.50;3.20;;;;;;;26.18;nan;-24542.19;5053134;28;20662;-60
2022/06/24 07:31:22;;;;;;;4.25;3.17;;;;;;;26.14;nan;-24541.09;5051183;28;20187;-60
2022/06/24 07:33:48;;;;;;;4.55;3.35;;;;;;;26.03;nan;-24538.19;5051564;28;20225;-60
2022/06/24 07:36:13;;;;;;;3.67;2.88;;;;;;;26.11;nan;-24540.41;5051646;28;20186;-60
2022/06/24 07:38:39;;;;;;;4.30;3.05;;;;;;;26.31;nan;-24545.75;5052427;28;20588;-60
2022/06/24 07:41:05;;;;;;;5.78;3.60;;;;;;;26.40;nan;-24548.09;5051432;28;20187;-60
2022/06/24 07:43:30;;;;;;;4.35;2.80;;;;;;;26.11;nan;-24540.25;5052531;28;20570;-60
2022/06/24 07:45:56;;;;;;;4.90;3.08;;;;;;;25.85;nan;-24533.38;5053570;28;20187;-59
2022/06/24 07:48:22;;;;;;;5.70;3.33;;;;;;;26.01;nan;-24537.66;5051243;28;20178;-60
2022/06/24 07:50:48;;;;;;;4.28;2.90;;;;;;;26.51;nan;-24551.25;5052772;28;20198;-60
2022/06/24 07:53:13;;;;;;;3.78;3.00;;;;;;;26.56;nan;-24552.63;5052184;28;20214;-60
2022/06/24 07:58:23;;;;;;;4.68;3.05;;;;;;;26.24;nan;-24543.97;5051744;28;20198;-60
2022/06/24 08:00:49;;;;;;;4.28;2.90;;;;;;;26.44;nan;-24549.19;5051608;28;20230;-60
2022/06/24 08:03:15;;;;;;;6.90;2.70;;;;;;;26.99;nan;-24564.28;5052180;28;20231;-60
2022/06/24 08:05:41;;;;;;;5.78;3.17;;;;;;;26.34;nan;-24546.59;5051599;28;20266;-59
2022/06/24 08:08:06;;;;;;;3.65;2.50;;;;;;;26.68;nan;-24555.78;5051623;28;20206;-60
2022/06/24 08:10:32;;;;;;;5.72;2.78;;;;;;;26.54;nan;-24552.06;5052496;28;20183;-60
2022/06/24 08:12:57;;;;;;;4.07;2.75;;;;;;;26.63;nan;-24554.41;5051909;28;20346;-60
2022/06/24 08:15:23;;;;;;;4.80;3.25;;;;;;;26.90;nan;-24561.69;5051999;28;20185;-60
2022/06/24 08:17:48;;;;;;;3.40;2.50;;;;;;;27.13;nan;-24568.13;5052416;28;20194;-61
2022/06/24 08:20:14;;;;;;;4.20;2.80;;;;;;;26.97;nan;-24563.75;5050799;28;20658;-60
2022/06/24 08:22:39;;;;;;;3.70;2.88;;;;;;;27.31;nan;-24572.78;5053277;28;20256;-60
2022/06/24 08:25:06;;;;;;;3.75;2.70;;;;;;;27.05;nan;-24565.81;5051960;28;20191;-60
2022/06/24 08:27:31;;;;;;;3.67;2.70;;;;;;;26.85;nan;-24560.44;5051474;28;20187;-61
2022/06/24 08:29:57;;;;;;;4.80;3.03;;;;;;;26.82;nan;-24559.75;5052307;28;20288;-60
2022/06/24 08:32:23;;;;;;;5.03;2.75;;;;;;;27.16;nan;-24568.94;5049797;28;20206;-60
2022/06/24 08:34:48;;;;;;;4.75;2.47;;;;;;;27.13;nan;-24568.00;5051668;28;20230;-60
2022/06/24 08:37:14;;;;;;;5.03;2.53;;;;;;;27.43;nan;-24576.06;5049680;28;20213;-61
2022/06/24 08:39:39;;;;;;;5.15;2.45;;;;;;;27.27;nan;-24571.84;5051728;28;20703;-61
2022/06/24 08:42:10;;;;;;;4.25;2.63;;;;;;;27.57;nan;-24580.06;5051552;28;20614;-60
2022/06/24 08:44:37;;;;;;;4.15;3.10;;;;;;;27.67;nan;-24582.81;5045496;28;20296;-60
2022/06/24 08:47:03;;;;;;;2.85;2.47;;;;;;;27.67;nan;-24582.66;5047092;28;20190;-59
2022/06/24 08:49:31;;;;;;;4.53;2.30;;;;;;;27.74;nan;-24584.59;5049475;28;20182;-61
2022/06/24 08:51:59;;;;;;;3.85;2.95;;;;;;;27.80;nan;-24586.22;5049814;28;20607;-60
2022/06/24 08:54:28;;;;;;;3.30;2.60;;;;;;;28.17;nan;-24596.09;5050621;28;20185;-60
2022/06/24 08:56:54;;;;;;;4.47;2.40;;;;;;;27.74;nan;-24584.59;5051920;28;20187;-59
2022/06/24 08:59:19;;;;;;;3.97;2.60;;;;;;;27.75;nan;-24584.72;5048985;28;20209;-60
2022/06/24 09:01:47;;;;;;;3.55;2.50;;;;;;;28.50;nan;-24605.13;5049584;28;20308;-61
2022/06/24 09:04:13;;;;;;;3.75;2.78;;;;;;;27.98;nan;-24591.16;5051118;28;20198;-61
2022/06/24 09:06:40;;;;;;;2.78;2.30;;;;;;;28.13;nan;-24595.13;5050875;28;20218;-60
2022/06/24 09:09:07;;;;;;;3.35;2.35;;;;;;;28.40;nan;-24602.50;5048016;28;20189;-60
2022/06/24 09:11:40;;;;;;;3.17;2.40;;;;;;;28.73;nan;-24611.41;5050108;28;20237;-60
2022/06/24 09:14:07;;;;;;;5.00;2.08;;;;;;;28.71;nan;-24610.72;5046386;28;20198;-63
2022/06/24 09:16:37;;;;;;;6.57;2.42;;;;;;;28.84;nan;-24614.41;5050570;28;20175;-60
2022/06/24 09:19:05;;;;;;;2.53;2.22;;;;;;;28.92;nan;-24616.47;5050934;28;20266;-60
2022/06/24 09:21:41;;;;;;;5.90;2.45;;;;;;;28.87;nan;-24615.09;5048194;28;20204;-58
2022/06/24 09:24:07;;;;;;;2.72;2.30;;;;;;;28.62;nan;-24608.41;5048848;28;20691;-62
2022/06/24 09:26:36;;;;;;;3.42;2.53;;;;;;;28.76;nan;-24612.09;5050511;28;20178;-60
2022/06/24 09:29:14;;;;;;;5.82;3.17;;;;;;;28.98;nan;-24618.25;5050482;28;20186;-61
2022/06/24 09:31:40;;;;;;;3.17;2.40;;;;;;;29.13;nan;-24622.06;5050157;28;20209;-63
2022/06/24 09:34:11;;;;;;;4.82;2.65;;;;;;;29.03;nan;-24619.47;5048062;28;20588;-59
2022/06/24 09:36:38;;;;;;;3.40;2.33;;;;;;;29.08;nan;-24620.84;5048907;28;20190;-60
2022/06/24 09:39:11;;;;;;;2.70;1.92;;;;;;;29.23;nan;-24624.94;5048872;28;20185;-60
2022/06/24 09:41:54;;;;;;;2.88;2.22;;;;;;;28.68;nan;-24610.03;5049612;28;20185;-60
2022/06/24 09:44:21;;;;;;;3.17;2.30;;;;;;;28.99;nan;-24618.50;5048891;28;20189;-60
2022/06/24 09:46:48;;;;;;;2.92;2.20;;;;;;;29.07;nan;-24620.44;5050347;28;20276;-60
2022/06/24 09:49:19;;;;;;;3.22;2.53;;;;;;;29.07;nan;-24620.44;5048569;28;20177;-60
2022/06/24 09:51:45;;;;;;;4.00;2.53;;;;;;;28.78;nan;-24612.63;5048570;28;20187;-61
2022/06/24 09:54:12;;;;;;;3.15;2.17;;;;;;;29.32;nan;-24627.25;5049398;28;20213;-62
2022/06/24 09:56:38;;;;;;;4.15;2.08;;;;;;;29.39;nan;-24629.16;5049353;28;20182;-59
2022/06/24 10:01:49;;;;;;;3.35;2.30;;;;;;;29.63;nan;-24635.72;5048657;28;20282;-60
2022/06/24 10:04:20;;;;;;;2.63;1.90;;;;;;;29.47;nan;-24631.34;5048971;28;20567;-62
2022/06/24 10:06:47;;;;;;;3.42;2.10;;;;;;;29.23;nan;-24624.94;5048395;28;20205;-61
2022/06/24 10:09:14;;;;;;;4.82;2.20;;;;;;;29.72;nan;-24638.03;5047601;28;20182;-62
2022/06/24 10:11:42;;;;;;;2.80;2.45;;;;;;;29.33;nan;-24627.53;5049967;28;20170;-60
2022/06/24 10:14:09;;;;;;;2.13;1.92;;;;;;;29.32;nan;-24627.25;5046310;28;20220;-60
2022/06/24 10:16:36;;;;;;;2.28;1.90;;;;;;;29.33;nan;-24627.53;5050168;28;20178;-62
2022/06/24 10:19:02;;;;;;;2.10;1.90;;;;;;;29.68;nan;-24636.94;5050012;28;20177;-60
2022/06/24 10:21:28;;;;;;;3.13;2.00;;;;;;;29.75;nan;-24638.84;5048989;28;20715;-60
2022/06/24 10:23:55;;;;;;;2.60;2.10;;;;;;;29.58;nan;-24634.22;5049367;28;20185;-62
2022/06/24 10:26:25;;;;;;;5.53;2.13;;;;;;;29.90;nan;-24642.97;5047889;28;20182;-62
2022/06/24 10:29:00;;;;;;;4.70;2.00;;;;;;;29.97;nan;-24644.88;5049338;28;20319;-62
2022/06/24 10:34:30;;;;;;;3.40;2.20;;;;;;;30.18;nan;-24650.44;5048682;28;20244;-60
2022/06/24 10:37:16;;;;;;;2.90;2.05;;;;;;;30.19;nan;-24650.88;5048054;28;20208;-60
2022/06/24 10:39:47;;;;;;;2.20;1.90;;;;;;;30.18;nan;-24650.59;5049439;28;20618;-59
2022/06/24 10:42:14;;;;;;;2.92;2.17;;;;;;;29.96;nan;-24644.59;5049785;28;20170;-60
2022/06/24 10:44:55;;;;;;;2.80;2.00;;;;;;;30.27;nan;-24653.03;5049421;28;20209;-60
2022/06/24 10:47:30;;;;;;;2.67;2.28;;;;;;;30.26;nan;-24652.63;5047869;28;20490;-61
2022/06/24 10:50:04;;;;;;;3.80;2.47;;;;;;;30.12;nan;-24648.81;5049577;28;20268;-60
2022/06/24 10:52:46;;;;;;;2.72;2.35;;;;;;;30.19;nan;-24650.88;5048851;28;20680;-61
2022/06/24 10:55:18;;;;;;;2.90;2.15;;;;;;;30.22;nan;-24651.69;5049897;28;20169;-63
2022/06/24 10:57:45;;;;;;;3.17;2.15;;;;;;;30.09;nan;-24648.00;5050241;28;20236;-62
2022/06/24 11:00:19;;;;;;;2.22;2.03;;;;;;;30.07;nan;-24647.59;5050294;28;20261;-61
2022/06/24 11:02:47;;;;;;;2.53;2.00;;;;;;;29.93;nan;-24643.63;5053645;28;20640;-59
2022/06/24 11:05:19;;;;;;;3.40;2.38;;;;;;;30.40;nan;-24656.31;5049926;28;20186;-61
2022/06/24 11:07:49;;;;;;;2.47;1.98;;;;;;;30.43;nan;-24657.13;5054136;28;20178;-61
2022/06/24 11:10:16;;;;;;;3.00;2.28;;;;;;;30.08;nan;-24647.72;5053455;28;20190;-60
2022/06/24 11:12:47;;;;;;;2.78;2.30;;;;;;;29.24;nan;-24625.06;5053271;28;20274;-60
2022/06/24 11:15:13;;;;;;;2.33;2.03;;;;;;;29.10;nan;-24621.38;5054932;28;20178;-62
2022/06/24 11:17:43;;;;;;;3.08;2.20;;;;;;;29.44;nan;-24630.53;5053020;28;20556;-62
2022/06/24 11:20:10;;;;;;;3.88;2.20;;;;;;;29.99;nan;-24645.28;5053001;28;20197;-61
2022/06/24 11:22:46;;;;;;;2.80;2.00;;;;;;;30.09;nan;-24648.00;5052210;28;20182;-59
2022/06/24 11:25:14;;;;;;;2.97;2.22;;;;;;;30.25;nan;-24652.34;5051522;28;20185;-60
2022/06/24 11:27:40;;;;;;;3.30;2.22;;;;;;;29.94;nan;-24644.03;5052143;28;20188;-58
2022/06/24 11:30:08;;;;;;;2.95;2.20;;;;;;;30.25;nan;-24652.50;5053875;28;20186;-58
2022/06/24 11:32:56;;;;;;;3.42;2.17;;;;;;;30.65;nan;-24663.25;5052594;28;20210;-61
2022/06/24 11:35:23;;;;;;;2.38;1.98;;;;;;;30.07;nan;-24647.44;5053835;28;20265;-60
2022/06/24 11:37:49;;;;;;;2.30;2.00;;;;;;;30.16;nan;-24649.91;5053370;28;20593;-61
2022/06/24 11:40:21;;;;;;;2.78;2.20;;;;;;;30.36;nan;-24655.34;5053731;28;20182;-60
2022/06/24 11:42:47;;;;;;;3.20;2.30;;;;;;;30.75;nan;-24665.84;5052576;28;20193;-61
2022/06/24 11:45:12;;;;;;;2.35;2.08;;;;;;;30.73;nan;-24665.16;5051270;28;20178;-59
2022/06/24 11:47:38;;;;;;;2.67;2.10;;;;;;;30.50;nan;-24659.19;5053328;28;20209;-60
2022/06/24 11:50:04;;;;;;;4.45;2.20;;;;;;;30.01;nan;-24645.81;5052729;28;20620;-60
2022/06/24 11:52:44;;;;;;;2.55;2.10;;;;;;;30.04;nan;-24646.63;5051525;28;20205;-61
2022/06/24 11:55:37;;;;;;;2.80;2.20;;;;;;;30.73;nan;-24665.16;5052199;28;20189;-61
2022/06/24 11:58:05;;;;;;;2.30;1.90;;;;;;;30.66;nan;-24663.41;5050875;28;20235;-59